Dan K's Hourly Wx Report @ Elkton
In Memory of Dan Krajewski
ELKTON 6/23/2017
Click Here to View Graph
ALL DATA IS PROVISIONAL.
Learn More about Dan, - cut n'paste this link,
https://sites.google.com/site/rememberingdankrajewski/Home
        DATE  TIME  Temp   Rel   New  Wind  Wind   Max Total  BATT
                      F Hum_%  Snow Speed   Dir  Gust Depth  Volt
                     AVG   AVG    HR   AVG   AVG   MAX ACCUM   AVG

   1/11/2017 06:00    18     2   0.0     4   249    13 74.21 12.09
   1/11/2017 05:00    18     2   0.0     3   224    14 73.82 12.09
   1/11/2017 04:00    18     2   0.0     5   248    14 76.30 12.09
   1/11/2017 03:00    18     2   0.0     4   236    12 75.05 12.10
   1/11/2017 02:00    17     2   0.4     3   200    10 75.97 12.09
   1/11/2017 01:00    17     2   2.1     5   211    18 75.06 12.10
   1/10/2017 24:00    17     2   1.0     8   218    20 75.49 12.12
   1/10/2017 23:00    17     2   0.8     8   223    22 73.47 12.10
   1/10/2017 22:00    17     2   0.6     6   213    22 72.04 12.11
   1/10/2017 21:00    17     2   1.8     6   209    23 71.10 12.12
   1/10/2017 20:00    17     2   0.0     5   209    18 69.79 12.12
   1/10/2017 19:00    17     2   1.2     2   190     8 70.00 12.13
   1/10/2017 18:00    17     2   0.0     1   130     4 68.27 12.16
   1/10/2017 17:00    18     2   0.0     3   206    14 68.44 12.24
   1/10/2017 16:00    18     2   0.7     6   225    18 67.96 12.38
   1/10/2017 15:00    18     2   0.0     6   222    17 67.85 12.45
   1/10/2017 14:00    17     2   0.0     5   235    17 67.88 12.38
   1/10/2017 13:00    17     2   1.6     7   241    26 68.34 12.34
   1/10/2017 12:00    16     2   0.0     8   243    24 68.16 12.30
   1/10/2017 11:00    17     2   0.2     8   238    29 68.64 12.31
   1/10/2017 10:00    16     2   1.4     8   234    34 68.32 12.24
   1/10/2017 09:00    15     1   0.0     7   252    34 68.26 12.17
   1/10/2017 08:00    14    70   1.0    10   260    39 68.42 12.15
   1/10/2017 07:00    13    91   0.0    11   265    29 68.52 12.15

Learn More about Dan - cut n'paste this link
https://sites.google.com/site/rememberingdankrajewski/Home
Click Here to View Graph